Houghton County Memorial Airport
KCMX : now visible

Airfield :











YOU CAN JOIN US ON...

 
LOGIN :

Register | Disclaimer

   EN    FR    IT 

 









Legend :    VFR   Marginal VFR   IFR   Intensive IFR   Very Intensive IFR
Visi :
Ceiling :
>= 8 km
>= 3000ft
5 to 8 km
1000 to 3000 ft
1500m to 5 km
500 to 1000 ft
800 to 1500m
200 to 500 ft
< 800m
< 200 ft
Symbols :   Thunderstorms  Fog  Heavy snow  Heavy precipitations  Wind > 20 kt






- Airport Elevation : 1095 ft
- IATA code : CMX


KCMX - Houghton County Memorial

CURRENT METAR :
  • 232053Z AUTO 16011KT 10SM BKN055 BKN070 28/20 A2990 RMK AO2 SLP119 T02830200 58020

EXPIRED METARs :
  • 231953Z AUTO 12010KT 10SM FEW070 28/20 A2993 RMK AO2 SLP129 T02830200
  • 231853Z AUTO 15008KT 10SM CLR 27/20 A2995 RMK AO2 SLP136 T02720200

TAF KCMX
Valid from the 23 at 18:00 until the 24 at 18:00 UTC


231738Z 2318/2418 13009KT P6SM SCT070
FM232100 13008KT P6SM VCTS SCT100CB
FM240100 16007KT P6SM -SHRA VCTS SCT035 OVC070CB
FM240900 24007KT P6SM BKN040
FM241700 27012G20KT P6SM SCT100
KZMP FIR / North America



MET'MAP, your aeronautical weather chart ! - Copyright ORBIFLY December 2007 - Disclaimer

ORBIFLY MET'MAP TEAM :

Programming & Development : Alexandra Zaïnal
Concept & original design : Baudouin d'Aumeries
Assistance for programming : Marc-Olivier Méhu
Technical & hardware support : Manuel Goepfert

Contact : metmap@orbifly.com




SOURCES & CREDITS :

   NOAA       Earth
Advisory